createdAt,value
2019-04-03T00:00:49.745Z,13.3
2019-04-03T00:02:49.942Z,13.4
2019-04-03T00:04:49.484Z,16.1
2019-04-03T00:06:49.676Z,13.9
2019-04-03T00:08:49.945Z,13.4
2019-04-03T00:10:49.959Z,13.4
2019-04-03T00:12:50.185Z,13.8
2019-04-03T00:14:50.314Z,13.3
2019-04-03T00:16:49.471Z,13.7
2019-04-03T00:18:49.702Z,13.7
2019-04-03T00:20:50.019Z,14.4
2019-04-03T00:22:51.813Z,14.3
2019-04-03T00:24:50.620Z,14.6
2019-04-03T00:26:51.830Z,13.9
2019-04-03T00:28:50.576Z,13.9
2019-04-03T00:30:49.539Z,15.6
2019-04-03T00:32:50.151Z,14.9
2019-04-03T00:34:49.564Z,14.9
2019-04-03T00:36:49.831Z,16.0
2019-04-03T00:38:49.658Z,16.6
2019-04-03T00:40:49.768Z,16.1
2019-04-03T00:42:49.805Z,17.4
2019-04-03T00:44:49.891Z,17.5
2019-04-03T00:46:50.200Z,17.6
2019-04-03T00:48:50.316Z,17.6
2019-04-03T00:50:49.478Z,18.0
2019-04-03T00:52:49.707Z,18.3
2019-04-03T00:54:49.779Z,18.2
2019-04-03T00:56:50.141Z,18.2
2019-04-03T00:58:50.197Z,18.2
2019-04-03T01:00:50.352Z,18.0
2019-04-03T01:02:50.429Z,19.2
2019-04-03T01:04:49.872Z,18.3
2019-04-03T01:06:50.208Z,18.3
2019-04-03T01:08:50.156Z,18.2
2019-04-03T01:10:50.441Z,20.0
2019-04-03T01:12:49.548Z,17.8
2019-04-03T01:14:49.692Z,18.8
2019-04-03T01:16:50.037Z,18.8
2019-04-03T01:18:50.296Z,20.2
2019-04-03T01:20:49.559Z,18.7
2019-04-03T01:22:49.814Z,18.7
2019-04-03T01:24:50.088Z,18.0
2019-04-03T01:26:50.367Z,18.0
2019-04-03T01:28:49.510Z,18.6
2019-04-03T01:30:49.594Z,17.8
2019-04-03T01:32:49.921Z,17.7
2019-04-03T01:34:50.251Z,17.7
2019-04-03T01:36:50.424Z,18.1
2019-04-03T01:38:50.409Z,18.5
2019-04-03T01:40:50.569Z,18.8
2019-04-03T01:42:52.130Z,18.0
2019-04-03T01:44:49.717Z,18.0
2019-04-03T01:46:49.866Z,18.5
2019-04-03T01:48:49.938Z,17.9
2019-04-03T01:50:50.108Z,17.4
2019-04-03T01:52:50.094Z,18.7
2019-04-03T01:54:50.208Z,18.7
2019-04-03T01:56:50.294Z,17.7
2019-04-03T01:58:50.321Z,17.9
2019-04-03T02:00:50.403Z,16.4
2019-04-03T02:02:50.432Z,16.4
2019-04-03T02:04:49.910Z,16.8
2019-04-03T02:06:50.080Z,17.6
2019-04-03T02:08:49.721Z,17.2
2019-04-03T02:10:50.001Z,17.4
2019-04-03T02:12:51.157Z,17.3
2019-04-03T02:14:51.508Z,17.3
2019-04-03T02:16:49.992Z,17.1
2019-04-03T02:18:49.751Z,16.3
2019-04-03T02:20:49.822Z,17.0
2019-04-03T02:22:49.858Z,17.0
2019-04-03T02:24:49.910Z,16.0
2019-04-03T02:26:50.245Z,15.7
2019-04-03T02:28:50.246Z,17.0
2019-04-03T02:30:50.323Z,15.6
2019-04-03T02:32:50.430Z,15.9
2019-04-03T02:34:49.868Z,15.9
2019-04-03T02:36:50.124Z,15.8
2019-04-03T02:38:51.472Z,16.0
2019-04-03T02:40:49.779Z,16.0
2019-04-03T02:42:50.118Z,16.0
2019-04-03T02:44:51.590Z,16.2
2019-04-03T02:46:50.346Z,17.1
2019-04-03T02:48:50.389Z,17.3
2019-04-03T02:50:50.625Z,17.3
2019-04-03T02:52:49.740Z,18.5
2019-04-03T02:54:49.772Z,18.0
2019-04-03T02:56:50.216Z,18.0
2019-04-03T02:58:53.211Z,17.6
2019-04-03T03:00:49.582Z,17.6
2019-04-03T03:02:50.263Z,17.6
2019-04-03T03:04:53.434Z,18.2
2019-04-03T03:06:50.135Z,19.0
2019-04-03T03:08:50.177Z,19.0
2019-04-03T03:10:51.538Z,17.9
2019-04-03T03:12:49.773Z,17.9
2019-04-03T03:14:49.855Z,18.8
2019-04-03T03:16:50.773Z,18.4
2019-04-03T03:18:50.222Z,18.1
2019-04-03T03:20:50.335Z,18.1
2019-04-03T03:22:50.626Z,17.4
2019-04-03T03:24:49.813Z,18.4
2019-04-03T03:26:49.917Z,19.2
2019-04-03T03:28:50.327Z,18.0
2019-04-03T03:30:57.554Z,18.0
2019-04-03T03:32:49.792Z,17.9
2019-04-03T03:34:56.388Z,18.1
2019-04-03T03:36:50.498Z,18.4
2019-04-03T03:38:50.105Z,18.4
2019-04-03T03:40:50.280Z,17.4
2019-04-03T03:42:50.279Z,17.7
2019-04-03T03:44:50.376Z,17.5
2019-04-03T03:46:49.781Z,18.0
2019-04-03T03:48:50.171Z,17.8
2019-04-03T03:50:49.938Z,17.8
2019-04-03T03:52:50.017Z,18.4
2019-04-03T03:54:50.854Z,18.6
2019-04-03T03:56:49.804Z,19.0
2019-04-03T03:58:49.748Z,19.6
2019-04-03T04:00:51.929Z,19.6
2019-04-03T04:02:49.908Z,20.6
2019-04-03T04:04:50.418Z,19.6
2019-04-03T04:06:49.707Z,19.6
2019-04-03T04:08:49.739Z,20.1
2019-04-03T04:10:49.710Z,21.2
2019-04-03T04:12:50.132Z,18.3
2019-04-03T04:14:49.819Z,18.2
2019-04-03T04:16:50.141Z,16.3
2019-04-03T04:18:50.255Z,16.3
2019-04-03T04:20:50.332Z,16.6
2019-04-03T04:22:50.889Z,21.9
2019-04-03T04:24:49.604Z,20.3
2019-04-03T04:26:50.607Z,20.3
2019-04-03T04:28:49.811Z,15.7
2019-04-03T04:30:49.921Z,15.7
2019-04-03T04:32:50.243Z,16.0
2019-04-03T04:34:50.582Z,16.4
2019-04-03T04:36:50.262Z,19.6
2019-04-03T04:38:50.283Z,19.6
2019-04-03T04:40:49.576Z,17.7
2019-04-03T04:42:49.547Z,18.1
2019-04-03T04:44:49.628Z,17.1
2019-04-03T04:46:49.855Z,19.2
2019-04-03T04:48:51.359Z,19.2
2019-04-03T04:50:50.393Z,18.3
2019-04-03T04:52:49.484Z,17.8
2019-04-03T04:54:49.527Z,18.9
2019-04-03T04:56:49.779Z,18.4
2019-04-03T04:58:49.794Z,18.4
2019-04-03T05:00:52.979Z,19.3
2019-04-03T05:02:51.104Z,18.8
2019-04-03T05:04:50.140Z,19.0
2019-04-03T05:06:50.568Z,19.1
2019-04-03T05:08:49.654Z,19.1
2019-04-03T05:10:49.580Z,19.5
2019-04-03T05:12:49.654Z,20.1
2019-04-03T05:14:49.796Z,21.5
2019-04-03T05:16:50.157Z,19.6
2019-04-03T05:18:50.374Z,19.6
2019-04-03T05:20:50.814Z,31.4
2019-04-03T05:22:49.636Z,24.4
2019-04-03T05:24:49.684Z,20.5
2019-04-03T05:26:49.890Z,20.5
2019-04-03T05:28:55.812Z,21.1
2019-04-03T05:30:49.757Z,19.2
2019-04-03T05:32:49.901Z,24.4
2019-04-03T05:34:50.283Z,24.4
2019-04-03T05:36:49.894Z,20.8
2019-04-03T05:38:50.990Z,20.6
2019-04-03T05:40:50.048Z,20.7
2019-04-03T05:42:50.564Z,20.6
2019-04-03T05:44:49.770Z,20.6
2019-04-03T05:46:49.917Z,31.8
2019-04-03T05:48:50.064Z,31.8
2019-04-03T05:50:50.175Z,20.8
2019-04-03T05:52:50.295Z,22.8
2019-04-03T05:54:50.276Z,19.9
2019-04-03T05:56:51.561Z,19.9
2019-04-03T05:58:55.862Z,19.5
2019-04-03T06:01:02.545Z,22.0
2019-04-03T06:02:52.528Z,22.3
2019-04-03T06:04:50.295Z,22.3
2019-04-03T06:06:49.722Z,21.8
2019-04-03T06:08:51.568Z,24.7
2019-04-03T06:10:50.104Z,29.7
2019-04-03T06:12:50.378Z,26.2
2019-04-03T06:14:50.924Z,25.4
2019-04-03T06:16:50.438Z,25.4
2019-04-03T06:18:50.432Z,21.8
2019-04-03T06:20:49.718Z,21.9
2019-04-03T06:22:50.541Z,21.7
2019-04-03T06:24:50.099Z,21.7
2019-04-03T06:26:50.494Z,28.6
2019-04-03T06:28:49.590Z,36.1
2019-04-03T06:30:49.715Z,28.2
2019-04-03T06:32:50.077Z,23.4
2019-04-03T06:34:49.475Z,23.4
2019-04-03T06:36:50.689Z,23.3
2019-04-03T06:38:49.959Z,26.3
2019-04-03T06:40:50.046Z,31.3
2019-04-03T06:42:50.161Z,31.3
2019-04-03T06:44:52.651Z,53.9
2019-04-03T06:46:49.665Z,32.7
2019-04-03T06:48:49.690Z,28.9
2019-04-03T06:50:49.655Z,24.9
2019-04-03T06:52:51.236Z,23.5
2019-04-03T06:54:49.962Z,23.5
2019-04-03T06:56:52.023Z,23.7
2019-04-03T06:58:50.048Z,25.9
2019-04-03T07:00:50.326Z,21.4
2019-04-03T07:02:49.959Z,21.4
2019-04-03T07:04:50.417Z,26.0
2019-04-03T07:06:50.425Z,27.2
2019-04-03T07:08:49.737Z,24.0
2019-04-03T07:10:54.767Z,24.3
2019-04-03T07:12:49.720Z,24.3
2019-04-03T07:14:49.699Z,19.9
2019-04-03T07:16:49.849Z,22.0
2019-04-03T07:18:50.072Z,17.6
2019-04-03T07:20:51.544Z,15.8
2019-04-03T07:22:49.608Z,15.8
2019-04-03T07:24:49.708Z,14.0
2019-04-03T07:26:50.304Z,13.5
2019-04-03T07:28:49.640Z,13.5
2019-04-03T07:30:52.302Z,14.7
2019-04-03T07:32:50.369Z,14.7
2019-04-03T07:34:50.078Z,11.8
2019-04-03T07:36:50.233Z,10.3
2019-04-03T07:38:49.834Z,10.3
2019-04-03T07:40:51.578Z,8.9
2019-04-03T07:42:49.763Z,8.9
2019-04-03T07:44:50.068Z,9.2
2019-04-03T07:46:50.398Z,9.6
2019-04-03T07:48:49.476Z,7.4
2019-04-03T07:50:49.677Z,7.5
2019-04-03T07:52:49.876Z,7.5
2019-04-03T07:54:50.676Z,3.2
2019-04-03T07:56:49.914Z,6.7
2019-04-03T07:58:50.075Z,6.0
2019-04-03T08:00:50.351Z,6.3
2019-04-03T08:02:50.021Z,6.3
2019-04-03T08:04:49.723Z,6.3
2019-04-03T08:06:50.264Z,6.3
2019-04-03T08:08:51.091Z,4.8
2019-04-03T08:10:50.406Z,4.8
2019-04-03T08:12:49.693Z,5.1
2019-04-03T08:14:50.094Z,7.4
2019-04-03T08:16:50.413Z,4.9
2019-04-03T08:18:51.710Z,7.5
2019-04-03T08:20:49.952Z,7.5
2019-04-03T08:22:49.929Z,7.4
2019-04-03T08:24:52.845Z,6.8
2019-04-03T08:26:51.582Z,6.8
2019-04-03T08:28:49.702Z,4.4
2019-04-03T08:30:50.104Z,4.4
2019-04-03T08:32:50.430Z,5.0
2019-04-03T08:34:49.925Z,4.8
2019-04-03T08:36:50.212Z,4.9
2019-04-03T08:38:49.761Z,4.9
2019-04-03T08:40:52.075Z,3.4
2019-04-03T08:42:49.989Z,3.4
2019-04-03T08:44:50.098Z,3.5
2019-04-03T08:46:50.279Z,3.3
2019-04-03T08:48:49.758Z,3.3
2019-04-03T08:50:49.859Z,4.4
2019-04-03T08:52:50.117Z,3.7
2019-04-03T08:54:50.351Z,3.2
2019-04-03T08:56:49.945Z,3.2
2019-04-03T08:58:50.441Z,3.2
2019-04-03T09:00:49.696Z,3.0
2019-04-03T09:02:50.204Z,4.5
2019-04-03T09:04:49.997Z,4.5
2019-04-03T09:06:49.882Z,3.7
2019-04-03T09:08:49.471Z,3.7
2019-04-03T09:10:49.541Z,4.1
2019-04-03T09:12:49.531Z,3.3
2019-04-03T09:14:49.804Z,3.8
2019-04-03T09:16:50.365Z,3.8
2019-04-03T09:18:49.892Z,4.5
2019-04-03T09:20:50.234Z,4.0
2019-04-03T09:22:51.331Z,3.7
2019-04-03T09:24:49.997Z,3.9
2019-04-03T09:26:50.312Z,5.5
2019-04-03T09:28:49.457Z,5.5
2019-04-03T09:30:49.746Z,4.1
2019-04-03T09:32:50.068Z,4.2
2019-04-03T09:34:49.700Z,6.1
2019-04-03T09:36:49.451Z,6.1
2019-04-03T09:38:50.394Z,4.0
2019-04-03T09:40:49.735Z,4.4
2019-04-03T09:42:51.476Z,4.4
2019-04-03T09:44:50.235Z,3.7
2019-04-03T09:46:49.890Z,3.7
2019-04-03T09:48:50.122Z,3.9
2019-04-03T09:50:50.183Z,3.8
2019-04-03T09:52:50.537Z,3.7
2019-04-03T09:54:49.873Z,3.8
2019-04-03T09:56:57.713Z,3.8
2019-04-03T09:58:49.608Z,4.2
2019-04-03T10:00:49.942Z,3.5
2019-04-03T10:02:51.467Z,2.8
2019-04-03T10:04:49.604Z,3.6
2019-04-03T10:06:49.585Z,3.6
2019-04-03T10:08:49.868Z,3.5
2019-04-03T10:10:50.331Z,2.9
2019-04-03T10:12:49.912Z,2.9
2019-04-03T10:14:49.555Z,3.1
2019-04-03T10:16:49.836Z,3.1
2019-04-03T10:18:49.984Z,6.4
2019-04-03T10:20:49.713Z,7.5
2019-04-03T10:22:49.965Z,7.5
2019-04-03T10:24:49.812Z,4.1
2019-04-03T10:26:50.141Z,4.0
2019-04-03T10:28:50.458Z,3.6
2019-04-03T10:30:51.936Z,3.8
2019-04-03T10:32:50.101Z,3.8
2019-04-03T10:34:50.039Z,3.8
2019-04-03T10:36:49.504Z,4.1
2019-04-03T10:38:50.044Z,4.2
2019-04-03T10:40:50.393Z,5.0
2019-04-03T10:42:50.099Z,4.1
2019-04-03T10:44:49.645Z,4.1
2019-04-03T10:46:50.218Z,4.3
2019-04-03T10:48:50.462Z,6.5
2019-04-03T10:50:49.785Z,4.5
2019-04-03T10:52:50.323Z,4.5
2019-04-03T10:54:49.798Z,4.6
2019-04-03T10:56:49.840Z,4.7
2019-04-03T10:58:50.794Z,4.8
2019-04-03T11:00:50.212Z,4.8
2019-04-03T11:02:49.798Z,4.8
2019-04-03T11:04:50.333Z,4.8
2019-04-03T11:06:49.814Z,4.7
2019-04-03T11:08:50.394Z,4.9
2019-04-03T11:10:50.098Z,4.9
2019-04-03T11:12:49.749Z,8.7
2019-04-03T11:14:49.987Z,5.2
2019-04-03T11:16:49.655Z,5.0
2019-04-03T11:18:58.384Z,5.6
2019-04-03T11:20:49.915Z,5.6
2019-04-03T11:22:50.510Z,5.9
2019-04-03T11:24:49.758Z,8.9
2019-04-03T11:26:51.650Z,11.0
2019-04-03T11:28:50.332Z,6.5
2019-04-03T11:30:52.669Z,10.5
2019-04-03T11:32:49.905Z,10.5
2019-04-03T11:34:50.144Z,6.5
2019-04-03T11:36:50.400Z,6.5
2019-04-03T11:38:50.168Z,11.5
2019-04-03T11:40:50.782Z,7.2
2019-04-03T11:42:49.735Z,7.2
2019-04-03T11:44:49.920Z,5.7
2019-04-03T11:46:50.015Z,5.7
2019-04-03T11:48:50.213Z,5.6
2019-04-03T11:50:49.966Z,5.5
2019-04-03T11:52:51.577Z,5.5
2019-04-03T11:54:52.646Z,6.6
2019-04-03T11:56:50.063Z,5.5
2019-04-03T11:58:52.014Z,6.7
2019-04-03T12:00:50.249Z,6.7
2019-04-03T12:02:50.061Z,8.3
2019-04-03T12:04:50.067Z,5.7
2019-04-03T12:06:51.930Z,6.2
2019-04-03T12:08:50.293Z,5.5
2019-04-03T12:10:50.087Z,5.5
2019-04-03T12:12:50.451Z,5.9
2019-04-03T12:14:50.208Z,16.9
2019-04-03T12:16:50.349Z,5.7
2019-04-03T12:18:49.620Z,5.7
2019-04-03T12:20:50.097Z,6.5
2019-04-03T12:22:49.713Z,7.7
2019-04-03T12:24:50.628Z,6.1
2019-04-03T12:26:51.486Z,6.1
2019-04-03T12:28:50.155Z,6.1
2019-04-03T12:30:49.454Z,5.1
2019-04-03T12:32:50.366Z,5.4
2019-04-03T12:34:50.391Z,5.7
2019-04-03T12:36:50.324Z,11.2
2019-04-03T12:38:49.903Z,11.2
2019-04-03T12:40:50.288Z,15.5
2019-04-03T12:42:49.448Z,6.1
2019-04-03T12:44:50.142Z,7.6
2019-04-03T12:46:50.044Z,5.2
2019-04-03T12:48:50.898Z,5.2
2019-04-03T12:50:50.166Z,5.5
2019-04-03T12:52:49.591Z,6.0
2019-04-03T12:54:52.757Z,5.8
2019-04-03T12:56:49.793Z,6.9
2019-04-03T12:58:49.692Z,6.9
2019-04-03T13:00:50.310Z,6.0
2019-04-03T13:02:51.300Z,5.8
2019-04-03T13:04:50.161Z,7.3
2019-04-03T13:06:50.011Z,6.8
2019-04-03T13:08:50.587Z,6.8
2019-04-03T13:10:49.708Z,6.4
2019-04-03T13:12:50.269Z,6.7
2019-04-03T13:14:50.019Z,6.7
2019-04-03T13:16:49.847Z,6.3
2019-04-03T13:18:49.523Z,6.3
2019-04-03T13:20:49.941Z,7.2
2019-04-03T13:22:50.245Z,7.5
2019-04-03T13:24:49.905Z,7.0
2019-04-03T13:26:49.746Z,6.3
2019-04-03T13:28:50.340Z,6.3
2019-04-03T13:30:50.098Z,7.2
2019-04-03T13:32:58.236Z,8.5
2019-04-03T13:34:49.650Z,24.9
2019-04-03T13:36:51.709Z,10.3
2019-04-03T13:38:51.195Z,10.3
2019-04-03T13:40:50.414Z,7.8
2019-04-03T13:42:50.101Z,9.6
2019-04-03T13:44:49.740Z,8.9
2019-04-03T13:46:52.296Z,8.9
2019-04-03T13:48:49.779Z,8.1
2019-04-03T13:50:49.492Z,11.1
2019-04-03T13:52:50.640Z,7.7
2019-04-03T13:54:50.221Z,11.1
2019-04-03T13:56:52.836Z,11.1
2019-04-03T13:58:52.270Z,8.0
2019-04-03T14:00:58.541Z,8.5
2019-04-03T14:02:49.663Z,8.5
2019-04-03T14:04:50.074Z,8.3
2019-04-03T14:06:49.545Z,8.3
2019-04-03T14:08:49.879Z,10.0
2019-04-03T14:10:50.482Z,7.9
2019-04-03T14:12:49.970Z,9.3
2019-04-03T14:14:50.155Z,9.3
2019-04-03T14:16:50.187Z,8.0
2019-04-03T14:18:51.058Z,7.9
2019-04-03T14:20:50.949Z,7.9
2019-04-03T14:22:49.812Z,8.1
2019-04-03T14:24:52.508Z,7.0
2019-04-03T14:26:50.098Z,7.0
2019-04-03T14:28:50.038Z,8.3
2019-04-03T14:30:49.680Z,7.5
2019-04-03T14:32:52.774Z,8.4
2019-04-03T14:34:50.124Z,7.4
2019-04-03T14:36:50.447Z,7.4
2019-04-03T14:38:49.659Z,8.1
2019-04-03T14:40:50.514Z,21.4
2019-04-03T14:42:49.771Z,6.2
2019-04-03T14:44:49.517Z,6.2
2019-04-03T14:46:51.076Z,9.4
2019-04-03T14:48:50.510Z,6.3
2019-04-03T14:50:49.786Z,6.3
2019-04-03T14:52:50.114Z,6.6
2019-04-03T14:54:50.539Z,6.6
2019-04-03T14:56:50.128Z,6.5
2019-04-03T14:58:50.489Z,6.9
2019-04-03T15:00:50.459Z,6.9
2019-04-03T15:02:49.909Z,8.4
2019-04-03T15:04:49.460Z,8.4
2019-04-03T15:07:01.042Z,9.5
2019-04-03T15:08:49.521Z,8.0
2019-04-03T15:10:50.193Z,9.6
2019-04-03T15:12:49.946Z,7.9
2019-04-03T15:14:50.326Z,7.9
2019-04-03T15:16:50.000Z,7.5
2019-04-03T15:18:49.849Z,10.5
2019-04-03T15:20:50.477Z,8.8
2019-04-03T15:22:49.638Z,8.8
2019-04-03T15:24:50.300Z,8.8
2019-04-03T15:26:50.926Z,7.8
2019-04-03T15:28:50.092Z,7.9
2019-04-03T15:30:49.868Z,7.9
2019-04-03T15:32:51.405Z,7.9
2019-04-03T15:34:50.758Z,8.0
2019-04-03T15:36:51.090Z,7.7
2019-04-03T15:38:49.933Z,7.8
2019-04-03T15:40:50.005Z,7.6
2019-04-03T15:42:50.400Z,7.6
2019-04-03T15:44:49.772Z,16.2
2019-04-03T15:46:50.534Z,9.3
2019-04-03T15:48:50.935Z,8.4
2019-04-03T15:50:49.981Z,10.1
2019-04-03T15:52:50.737Z,10.1
2019-04-03T15:54:49.870Z,9.0
2019-04-03T15:56:50.157Z,12.0
2019-04-03T15:58:50.931Z,13.0
2019-04-03T16:00:49.711Z,11.8
2019-04-03T16:02:49.613Z,11.8
2019-04-03T16:04:50.360Z,11.3
2019-04-03T16:06:49.742Z,10.7
2019-04-03T16:08:49.695Z,11.7
2019-04-03T16:10:50.658Z,11.7
2019-04-03T16:12:49.741Z,11.2
2019-04-03T16:14:51.116Z,11.0
2019-04-03T16:16:50.162Z,10.8
2019-04-03T16:18:50.620Z,12.5
2019-04-03T16:20:50.068Z,12.5
2019-04-03T16:22:49.706Z,11.5
2019-04-03T16:24:51.063Z,11.8
2019-04-03T16:26:49.518Z,11.4
2019-04-03T16:28:49.730Z,9.7
2019-04-03T16:30:52.683Z,9.7
2019-04-03T16:32:49.668Z,9.7
2019-04-03T16:34:50.697Z,10.3
2019-04-03T16:36:50.369Z,7.4
2019-04-03T16:38:50.467Z,7.4
2019-04-03T16:40:49.957Z,6.9
2019-04-03T16:42:52.829Z,6.4
2019-04-03T16:44:50.534Z,6.9
2019-04-03T16:46:49.864Z,6.5
2019-04-03T16:48:50.837Z,6.5
2019-04-03T16:50:50.000Z,9.2
2019-04-03T16:52:50.020Z,6.5
2019-04-03T16:54:49.641Z,7.5
2019-04-03T16:56:50.081Z,6.7
2019-04-03T16:58:50.044Z,6.7
2019-04-03T17:00:50.516Z,6.1
2019-04-03T17:02:50.176Z,6.5
2019-04-03T17:04:49.703Z,6.7
2019-04-03T17:06:50.589Z,6.7
2019-04-03T17:08:49.820Z,7.3
2019-04-03T17:10:49.977Z,7.9
2019-04-03T17:12:50.174Z,7.5
2019-04-03T17:14:50.147Z,8.7
2019-04-03T17:16:50.103Z,8.3
2019-04-03T17:18:49.632Z,7.8
2019-04-03T17:20:50.533Z,7.8
2019-04-03T17:22:50.200Z,8.3
2019-04-03T17:24:53.941Z,7.7
2019-04-03T17:26:55.526Z,8.2
2019-04-03T17:29:01.217Z,8.2
2019-04-03T17:30:51.373Z,8.1
2019-04-03T17:32:49.453Z,9.7
2019-04-03T17:34:49.961Z,12.2
2019-04-03T17:36:52.511Z,12.2
2019-04-03T17:38:49.523Z,9.1
2019-04-03T17:40:50.156Z,8.0
2019-04-03T17:42:50.166Z,8.1
2019-04-03T17:44:50.280Z,8.1
2019-04-03T17:46:49.551Z,8.2
2019-04-03T17:48:49.635Z,8.2
2019-04-03T17:50:49.648Z,8.6
2019-04-03T17:52:49.749Z,8.3
2019-04-03T17:54:49.847Z,8.8
2019-04-03T17:56:50.052Z,8.2
2019-04-03T17:58:50.157Z,8.2
2019-04-03T18:00:52.003Z,11.0
2019-04-03T18:02:49.643Z,8.3
2019-04-03T18:04:51.126Z,7.8
2019-04-03T18:06:50.442Z,7.8
2019-04-03T18:08:49.565Z,9.1
2019-04-03T18:10:49.728Z,9.5
2019-04-03T18:12:50.122Z,8.5
2019-04-03T18:14:49.830Z,8.5
2019-04-03T18:16:49.973Z,8.8
2019-04-03T18:18:50.152Z,8.0
2019-04-03T18:20:50.303Z,7.3
2019-04-03T18:22:50.967Z,7.7
2019-04-03T18:24:51.820Z,7.7
2019-04-03T18:26:49.508Z,8.4
2019-04-03T18:28:49.571Z,8.0
2019-04-03T18:30:49.667Z,10.6
2019-04-03T18:32:49.781Z,10.6
2019-04-03T18:34:51.229Z,70.2
2019-04-03T18:36:49.908Z,70.2
2019-04-03T18:38:50.025Z,30.4
2019-04-03T18:40:50.033Z,19.0
2019-04-03T18:42:50.349Z,24.5
2019-04-03T18:44:49.534Z,24.5
2019-04-03T18:46:50.224Z,37.0
2019-04-03T18:48:53.768Z,9.4
2019-04-03T18:50:50.363Z,7.7
2019-04-03T18:52:50.392Z,8.3
2019-04-03T18:54:49.449Z,8.3
2019-04-03T18:56:49.683Z,9.1
2019-04-03T18:58:49.716Z,7.3
2019-04-03T19:00:49.848Z,6.8
2019-04-03T19:02:49.970Z,6.8
2019-04-03T19:05:01.050Z,12.6
2019-04-03T19:06:49.698Z,4.8
2019-04-03T19:08:49.986Z,4.8
2019-04-03T19:11:01.290Z,5.1
2019-04-03T19:12:49.830Z,5.1
2019-04-03T19:14:49.776Z,4.6
2019-04-03T19:16:51.919Z,4.8
2019-04-03T19:18:49.754Z,4.1
2019-04-03T19:20:49.811Z,3.5
2019-04-03T19:23:01.536Z,3.5
2019-04-03T19:24:49.526Z,3.8
2019-04-03T19:26:49.663Z,3.6
2019-04-03T19:28:49.750Z,3.7
2019-04-03T19:30:49.782Z,4.5
2019-04-03T19:32:49.797Z,4.5
2019-04-03T19:34:52.331Z,4.0
2019-04-03T19:36:49.444Z,4.0
2019-04-03T19:38:49.514Z,4.2
2019-04-03T19:40:49.652Z,4.2
2019-04-03T19:42:49.671Z,4.3
2019-04-03T19:44:49.806Z,4.2
2019-04-03T19:46:50.125Z,4.8
2019-04-03T19:48:50.212Z,4.5
2019-04-03T19:50:50.304Z,4.3
2019-04-03T19:52:50.376Z,4.3
2019-04-03T19:54:49.618Z,4.5
2019-04-03T19:56:50.192Z,4.5
2019-04-03T19:58:50.234Z,4.3
2019-04-03T20:00:50.190Z,4.7
2019-04-03T20:02:50.186Z,4.7
2019-04-03T20:04:49.542Z,4.3
2019-04-03T20:06:49.671Z,4.4
2019-04-03T20:08:49.705Z,4.4
2019-04-03T20:10:49.777Z,4.4
2019-04-03T20:12:49.956Z,4.1
2019-04-03T20:14:57.764Z,4.1
2019-04-03T20:16:50.387Z,4.1
2019-04-03T20:18:49.499Z,3.5
2019-04-03T20:20:49.578Z,3.5
2019-04-03T20:22:49.481Z,3.7
2019-04-03T20:24:59.338Z,4.3
2019-04-03T20:26:49.902Z,3.6
2019-04-03T20:28:50.008Z,4.1
2019-04-03T20:30:50.066Z,4.1
2019-04-03T20:32:50.075Z,3.8
2019-04-03T20:34:50.361Z,3.3
2019-04-03T20:36:52.775Z,3.9
2019-04-03T20:38:50.022Z,3.9
2019-04-03T20:40:50.059Z,3.4
2019-04-03T20:42:50.085Z,4.1
2019-04-03T20:44:50.162Z,3.7
2019-04-03T20:46:50.381Z,3.7
2019-04-03T20:48:50.390Z,3.6
2019-04-03T20:50:49.544Z,3.6
2019-04-03T20:52:49.640Z,4.0
2019-04-03T20:54:52.731Z,3.9
2019-04-03T20:56:57.416Z,3.6
2019-04-03T20:58:55.959Z,3.6
2019-04-03T21:00:49.815Z,3.7
2019-04-03T21:02:49.950Z,3.8
2019-04-03T21:04:50.258Z,3.6
2019-04-03T21:06:51.471Z,3.6
2019-04-03T21:08:50.230Z,3.9
2019-04-03T21:10:50.269Z,4.0
2019-04-03T21:12:50.305Z,3.6
2019-04-03T21:14:50.407Z,4.3
2019-04-03T21:16:49.699Z,4.4
2019-04-03T21:18:51.124Z,3.9
2019-04-03T21:20:49.813Z,3.9
2019-04-03T21:22:49.935Z,4.1
2019-04-03T21:24:49.976Z,4.3
2019-04-03T21:26:50.197Z,4.0
2019-04-03T21:28:50.211Z,4.0
2019-04-03T21:30:50.261Z,4.6
2019-04-03T21:32:50.280Z,4.2
2019-04-03T21:34:49.689Z,4.7
2019-04-03T21:36:49.980Z,4.6
2019-04-03T21:38:50.115Z,4.6
2019-04-03T21:40:50.183Z,4.3
2019-04-03T21:42:50.188Z,4.5
2019-04-03T21:44:50.214Z,4.5
2019-04-03T21:46:50.427Z,4.5
2019-04-03T21:48:49.466Z,4.7
2019-04-03T21:50:50.518Z,4.8
2019-04-03T21:52:53.423Z,4.7
2019-04-03T21:54:50.300Z,4.7
2019-04-03T21:56:50.419Z,4.9
2019-04-03T21:58:49.452Z,4.9
2019-04-03T22:00:49.578Z,4.5
2019-04-03T22:02:50.028Z,4.5
2019-04-03T22:04:49.504Z,4.8
2019-04-03T22:06:49.680Z,4.8
2019-04-03T22:08:51.455Z,4.8
2019-04-03T22:10:50.489Z,4.9
2019-04-03T22:12:49.736Z,5.1
2019-04-03T22:14:49.802Z,5.1
2019-04-03T22:16:50.728Z,5.1
2019-04-03T22:18:50.395Z,4.4
2019-04-03T22:20:50.446Z,5.2
2019-04-03T22:22:49.646Z,4.9
2019-04-03T22:24:49.627Z,5.0
2019-04-03T22:26:49.934Z,5.0
2019-04-03T22:28:49.952Z,4.4
2019-04-03T22:30:52.207Z,5.1
2019-04-03T22:32:49.873Z,5.3
2019-04-03T22:34:50.287Z,5.4
2019-04-03T22:36:50.429Z,5.4
2019-04-03T22:38:49.435Z,5.4
2019-04-03T22:40:49.497Z,5.2
2019-04-03T22:42:49.507Z,5.4
2019-04-03T22:44:49.525Z,5.2
2019-04-03T22:46:49.795Z,5.2
2019-04-03T22:48:49.893Z,5.5
2019-04-03T22:50:49.976Z,5.2
2019-04-03T22:52:50.060Z,5.5
2019-04-03T22:54:50.151Z,5.5
2019-04-03T22:56:50.395Z,5.5
2019-04-03T22:58:52.526Z,5.5
2019-04-03T23:00:50.455Z,5.6
2019-04-03T23:02:49.431Z,5.1
2019-04-03T23:04:49.963Z,5.1
2019-04-03T23:06:50.260Z,5.6
2019-04-03T23:08:51.817Z,5.4
2019-04-03T23:10:50.287Z,5.8
2019-04-03T23:12:50.271Z,5.5
2019-04-03T23:14:50.202Z,5.5
2019-04-03T23:16:49.553Z,5.5
2019-04-03T23:18:49.547Z,5.5
2019-04-03T23:20:52.487Z,5.5
2019-04-03T23:22:50.328Z,5.3
2019-04-03T23:24:50.363Z,5.3
2019-04-03T23:26:49.648Z,5.3
2019-04-03T23:28:49.720Z,5.3
2019-04-03T23:30:49.821Z,5.3
2019-04-03T23:32:49.991Z,5.2
2019-04-03T23:34:50.304Z,5.2
2019-04-03T23:36:49.535Z,5.2
2019-04-03T23:38:49.530Z,5.3
2019-04-03T23:40:49.660Z,5.4
2019-04-03T23:42:49.676Z,5.4
2019-04-03T23:44:49.768Z,5.4
2019-04-03T23:46:50.009Z,5.0
2019-04-03T23:48:50.108Z,5.2
2019-04-03T23:50:52.327Z,5.2
2019-04-03T23:52:50.127Z,5.2
2019-04-03T23:54:50.080Z,5.9
2019-04-03T23:56:50.331Z,5.8
2019-04-03T23:58:50.378Z,5.7
